sensor_id;sensor_type;location;lat;lon;timestamp;pressure;altitude;pressure_sealevel;temperature;humidity
10460;BME280;54412;51.206;6.888;2023-12-07T00:01:14;101244.03;;;3.59;88.64
10460;BME280;54412;51.206;6.888;2023-12-07T00:03:40;101248.56;;;3.42;89.36
10460;BME280;54412;51.206;6.888;2023-12-07T00:06:06;101245.81;;;3.53;89.52
10460;BME280;54412;51.206;6.888;2023-12-07T00:08:31;101247.50;;;3.58;89.12
10460;BME280;54412;51.206;6.888;2023-12-07T00:10:57;101241.34;;;3.67;88.99
10460;BME280;54412;51.206;6.888;2023-12-07T00:13:22;101237.91;;;3.60;89.12
10460;BME280;54412;51.206;6.888;2023-12-07T00:15:48;101244.22;;;3.43;89.61
10460;BME280;54412;51.206;6.888;2023-12-07T00:18:14;101251.91;;;3.53;89.33
10460;BME280;54412;51.206;6.888;2023-12-07T00:20:39;101245.13;;;3.42;89.19
10460;BME280;54412;51.206;6.888;2023-12-07T00:23:05;101244.84;;;3.64;89.92
10460;BME280;54412;51.206;6.888;2023-12-07T00:25:31;101244.25;;;3.41;90.96
10460;BME280;54412;51.206;6.888;2023-12-07T00:27:57;101244.25;;;3.41;90.65
10460;BME280;54412;51.206;6.888;2023-12-07T00:30:22;101233.84;;;3.37;90.61
10460;BME280;54412;51.206;6.888;2023-12-07T00:32:48;101238.06;;;3.50;89.53
10460;BME280;54412;51.206;6.888;2023-12-07T00:35:14;101233.69;;;3.52;89.11
10460;BME280;54412;51.206;6.888;2023-12-07T00:37:41;101239.06;;;3.37;89.85
10460;BME280;54412;51.206;6.888;2023-12-07T00:40:07;101239.16;;;3.31;89.63
10460;BME280;54412;51.206;6.888;2023-12-07T00:42:33;101240.84;;;3.33;89.94
10460;BME280;54412;51.206;6.888;2023-12-07T00:45:00;101237.38;;;3.34;89.78
10460;BME280;54412;51.206;6.888;2023-12-07T00:47:26;101230.56;;;3.21;89.68
10460;BME280;54412;51.206;6.888;2023-12-07T00:49:52;101238.19;;;3.38;88.90
10460;BME280;54412;51.206;6.888;2023-12-07T00:52:17;101239.16;;;3.29;89.23
10460;BME280;54412;51.206;6.888;2023-12-07T00:54:43;101242.59;;;3.31;89.15
10460;BME280;54412;51.206;6.888;2023-12-07T00:57:09;101248.56;;;3.42;88.75
10460;BME280;54412;51.206;6.888;2023-12-07T00:59:35;101246.13;;;3.29;89.02
10460;BME280;54412;51.206;6.888;2023-12-07T01:02:08;101251.28;;;3.33;89.06
10460;BME280;54412;51.206;6.888;2023-12-07T01:04:34;101242.88;;;3.05;89.80
10460;BME280;54412;51.206;6.888;2023-12-07T01:06:59;101249.50;;;3.35;90.16
10460;BME280;54412;51.206;6.888;2023-12-07T01:09:26;101251.94;;;3.52;88.97
10460;BME280;54412;51.206;6.888;2023-12-07T01:11:51;101252.00;;;3.47;89.30
10460;BME280;54412;51.206;6.888;2023-12-07T01:14:18;101251.63;;;3.77;89.83
10460;BME280;54412;51.206;6.888;2023-12-07T01:16:45;101247.50;;;3.58;90.68
10460;BME280;54412;51.206;6.888;2023-12-07T01:19:11;101255.44;;;3.49;90.66
10460;BME280;54412;51.206;6.888;2023-12-07T01:21:40;101258.84;;;3.56;90.94
10460;BME280;54412;51.206;6.888;2023-12-07T01:24:07;101253.75;;;3.47;91.37
10460;BME280;54412;51.206;6.888;2023-12-07T01:26:33;101258.09;;;3.46;91.56
10460;BME280;54412;51.206;6.888;2023-12-07T01:28:58;101254.69;;;3.40;91.82
10460;BME280;54412;51.206;6.888;2023-12-07T01:31:24;101246.75;;;3.50;92.15
10460;BME280;54412;51.206;6.888;2023-12-07T01:33:50;101248.44;;;3.54;91.31
10460;BME280;54412;51.206;6.888;2023-12-07T01:36:15;101244.91;;;3.60;91.65
10460;BME280;54412;51.206;6.888;2023-12-07T01:38:42;101245.03;;;3.46;92.92
10460;BME280;54412;51.206;6.888;2023-12-07T01:41:09;101245.78;;;3.57;92.44
10460;BME280;54412;51.206;6.888;2023-12-07T01:43:35;101245.00;;;3.49;92.22
10460;BME280;54412;51.206;6.888;2023-12-07T01:46:01;101245.94;;;3.42;93.03
10460;BME280;54412;51.206;6.888;2023-12-07T01:48:28;101247.66;;;3.46;92.61
10460;BME280;54412;51.206;6.888;2023-12-07T01:50:56;101246.78;;;3.49;93.03
10460;BME280;54412;51.206;6.888;2023-12-07T01:53:24;101259.09;;;3.33;93.52
10460;BME280;54412;51.206;6.888;2023-12-07T01:55:52;101262.63;;;3.28;92.88
10460;BME280;54412;51.206;6.888;2023-12-07T01:58:20;101271.19;;;3.42;92.65
10460;BME280;54412;51.206;6.888;2023-12-07T02:00:47;101264.22;;;3.42;92.14
10460;BME280;54412;51.206;6.888;2023-12-07T02:03:13;101270.88;;;3.67;91.65
10460;BME280;54412;51.206;6.888;2023-12-07T02:05:46;101264.09;;;3.53;91.72
10460;BME280;54412;51.206;6.888;2023-12-07T02:08:12;101262.50;;;3.40;92.35
10460;BME280;54412;51.206;6.888;2023-12-07T02:10:38;101274.63;;;3.44;93.42
10460;BME280;54412;51.206;6.888;2023-12-07T02:13:05;101271.31;;;3.99;93.81
10460;BME280;54412;51.206;6.888;2023-12-07T02:15:31;101264.69;;;3.74;94.27
10460;BME280;54412;51.206;6.888;2023-12-07T02:18:16;101280.91;;;4.00;93.84
10460;BME280;54412;51.206;6.888;2023-12-07T02:21:03;101281.91;;;3.89;95.20
10460;BME280;54412;51.206;6.888;2023-12-07T02:23:32;101277.50;;;3.95;95.46
10460;BME280;54412;51.206;6.888;2023-12-07T02:26:03;101282.94;;;3.77;95.49
10460;BME280;54412;51.206;6.888;2023-12-07T02:28:29;101288.00;;;3.89;95.08
10460;BME280;54412;51.206;6.888;2023-12-07T02:30:55;101291.44;;;3.93;95.16
10460;BME280;54412;51.206;6.888;2023-12-07T02:33:21;101292.34;;;3.92;95.49
10460;BME280;54412;51.206;6.888;2023-12-07T02:35:47;101286.34;;;3.82;94.97
10460;BME280;54412;51.206;6.888;2023-12-07T02:38:13;101303.44;;;4.07;94.78
10460;BME280;54412;51.206;6.888;2023-12-07T02:40:41;101293.88;;;4.05;94.45
10460;BME280;54412;51.206;6.888;2023-12-07T02:43:09;101300.88;;;4.01;94.35
10460;BME280;54412;51.206;6.888;2023-12-07T02:45:36;101291.97;;;4.17;95.02
10460;BME280;54412;51.206;6.888;2023-12-07T02:48:01;101297.19;;;4.20;95.20
10460;BME280;54412;51.206;6.888;2023-12-07T02:50:27;101299.00;;;4.15;95.20
10460;BME280;54412;51.206;6.888;2023-12-07T02:52:53;101301.44;;;4.26;95.11
10460;BME280;54412;51.206;6.888;2023-12-07T02:55:18;101289.47;;;4.11;96.17
10460;BME280;54412;51.206;6.888;2023-12-07T02:57:45;101287.78;;;4.06;96.84
10460;BME280;54412;51.206;6.888;2023-12-07T03:00:11;101272.13;;;4.06;97.79
10460;BME280;54412;51.206;6.888;2023-12-07T03:02:39;101278.78;;;4.26;97.06
10460;BME280;54412;51.206;6.888;2023-12-07T03:05:06;101271.88;;;4.24;97.76
10460;BME280;54412;51.206;6.888;2023-12-07T03:07:33;101274.38;;;4.33;97.36
10460;BME280;54412;51.206;6.888;2023-12-07T03:09:59;101266.63;;;4.25;97.11
10460;BME280;54412;51.206;6.888;2023-12-07T03:12:25;101263.25;;;4.19;97.87
10460;BME280;54412;51.206;6.888;2023-12-07T03:14:51;101270.13;;;4.26;97.42
10460;BME280;54412;51.206;6.888;2023-12-07T03:17:17;101271.84;;;4.25;96.95
10460;BME280;54412;51.206;6.888;2023-12-07T03:19:42;101266.41;;;4.39;96.89
10460;BME280;54412;51.206;6.888;2023-12-07T03:22:08;101258.56;;;4.42;96.85
10460;BME280;54412;51.206;6.888;2023-12-07T03:24:36;101268.94;;;4.45;95.91
10460;BME280;54412;51.206;6.888;2023-12-07T03:27:02;101270.00;;;4.35;97.15
10460;BME280;54412;51.206;6.888;2023-12-07T03:29:27;101272.50;;;4.41;97.21
10460;BME280;54412;51.206;6.888;2023-12-07T03:31:53;101269.13;;;4.35;97.28
10460;BME280;54412;51.206;6.888;2023-12-07T03:34:19;101265.72;;;4.30;97.64
10460;BME280;54412;51.206;6.888;2023-12-07T03:36:48;101267.44;;;4.31;98.13
10460;BME280;54412;51.206;6.888;2023-12-07T03:39:15;101258.59;;;4.39;97.80
10460;BME280;54412;51.206;6.888;2023-12-07T03:41:41;101252.63;;;4.31;97.69
10460;BME280;54412;51.206;6.888;2023-12-07T03:44:07;101258.59;;;4.41;98.18
10460;BME280;54412;51.206;6.888;2023-12-07T03:46:33;101270.66;;;4.48;98.09
10460;BME280;54412;51.206;6.888;2023-12-07T03:48:59;101260.31;;;4.42;98.43
10460;BME280;54412;51.206;6.888;2023-12-07T03:51:27;101257.50;;;4.54;97.08
10460;BME280;54412;51.206;6.888;2023-12-07T03:53:57;101263.88;;;4.36;98.07
10460;BME280;54412;51.206;6.888;2023-12-07T03:56:28;101266.19;;;4.54;98.02
10460;BME280;54412;51.206;6.888;2023-12-07T03:58:54;101267.09;;;4.53;98.13
10460;BME280;54412;51.206;6.888;2023-12-07T04:01:28;101271.50;;;4.50;97.81
10460;BME280;54412;51.206;6.888;2023-12-07T04:03:56;101270.31;;;4.69;97.19
10460;BME280;54412;51.206;6.888;2023-12-07T04:06:23;101265.75;;;4.83;96.24
10460;BME280;54412;51.206;6.888;2023-12-07T04:08:49;101267.78;;;4.64;96.57
10460;BME280;54412;51.206;6.888;2023-12-07T04:11:15;101257.50;;;4.54;97.92
10460;BME280;54412;51.206;6.888;2023-12-07T04:13:41;101266.34;;;4.45;98.32
10460;BME280;54412;51.206;6.888;2023-12-07T04:16:08;101258.56;;;4.42;98.44
10460;BME280;54412;51.206;6.888;2023-12-07T04:18:34;101257.50;;;4.54;98.47
10460;BME280;54412;51.206;6.888;2023-12-07T04:21:00;101260.91;;;4.60;98.69
10460;BME280;54412;51.206;6.888;2023-12-07T04:23:25;101261.59;;;4.70;98.50
10460;BME280;54412;51.206;6.888;2023-12-07T04:25:51;101261.75;;;4.59;98.75
10460;BME280;54412;51.206;6.888;2023-12-07T04:28:17;101263.41;;;4.65;98.58
10460;BME280;54412;51.206;6.888;2023-12-07T04:30:43;101263.50;;;4.60;98.97
10460;BME280;54412;51.206;6.888;2023-12-07T04:33:08;101264.50;;;4.53;99.26
10460;BME280;54412;51.206;6.888;2023-12-07T04:35:35;101277.28;;;4.71;98.90
10460;BME280;54412;51.206;6.888;2023-12-07T04:38:01;101273.88;;;4.65;98.95
10460;BME280;54412;51.206;6.888;2023-12-07T04:40:27;101279.81;;;4.74;99.18
10460;BME280;54412;51.206;6.888;2023-12-07T04:42:53;101282.25;;;4.85;98.77
10460;BME280;54412;51.206;6.888;2023-12-07T04:45:19;101286.47;;;4.93;97.67
10460;BME280;54412;51.206;6.888;2023-12-07T04:47:45;101285.63;;;4.93;98.07
10460;BME280;54412;51.206;6.888;2023-12-07T04:50:11;101285.72;;;4.87;97.83
10460;BME280;54412;51.206;6.888;2023-12-07T04:52:37;101285.72;;;4.87;98.70
10460;BME280;54412;51.206;6.888;2023-12-07T04:55:03;101281.16;;;4.99;97.93
10460;BME280;54412;51.206;6.888;2023-12-07T04:57:28;101289.06;;;4.96;98.43
10460;BME280;54412;51.206;6.888;2023-12-07T04:59:54;101280.47;;;4.88;98.56
10460;BME280;54412;51.206;6.888;2023-12-07T05:02:20;101292.47;;;5.00;99.05
10460;BME280;54412;51.206;6.888;2023-12-07T05:04:46;101285.28;;;5.12;97.55
10460;BME280;54412;51.206;6.888;2023-12-07T05:07:12;101296.88;;;4.95;98.79
10460;BME280;54412;51.206;6.888;2023-12-07T05:09:39;101297.81;;;4.92;99.18
10460;BME280;54412;51.206;6.888;2023-12-07T05:12:05;101291.81;;;4.87;99.62
10460;BME280;54412;51.206;6.888;2023-12-07T05:14:32;101294.25;;;4.98;100.00
10460;BME280;54412;51.206;6.888;2023-12-07T05:16:57;101305.72;;;4.88;99.96
10460;BME280;54412;51.206;6.888;2023-12-07T05:19:24;101301.19;;;4.99;99.38
10460;BME280;54412;51.206;6.888;2023-12-07T05:21:51;101303.47;;;5.18;98.06
10460;BME280;54412;51.206;6.888;2023-12-07T05:24:17;101310.84;;;4.95;99.71
10460;BME280;54412;51.206;6.888;2023-12-07T05:26:45;101310.66;;;5.06;100.00
10460;BME280;54412;51.206;6.888;2023-12-07T05:29:15;101303.69;;;5.06;100.00
10460;BME280;54412;51.206;6.888;2023-12-07T05:31:41;101307.66;;;4.75;100.00
10460;BME280;54412;51.206;6.888;2023-12-07T05:34:10;101316.91;;;4.97;100.00
10460;BME280;54412;51.206;6.888;2023-12-07T05:36:36;101315.16;;;4.98;100.00
10460;BME280;54412;51.206;6.888;2023-12-07T05:39:02;101315.16;;;4.98;99.96
10460;BME280;54412;51.206;6.888;2023-12-07T05:41:28;101316.00;;;5.00;99.68
10460;BME280;54412;51.206;6.888;2023-12-07T05:43:53;101314.97;;;5.08;99.14
10460;BME280;54412;51.206;6.888;2023-12-07T05:46:19;101314.31;;;4.96;99.42
10460;BME280;54412;51.206;6.888;2023-12-07T05:48:45;101309.69;;;5.11;98.60
10460;BME280;54412;51.206;6.888;2023-12-07T05:51:14;101311.59;;;5.03;98.97
10460;BME280;54412;51.206;6.888;2023-12-07T05:53:41;101298.22;;;5.18;98.47
10460;BME280;54412;51.206;6.888;2023-12-07T05:56:07;101300.69;;;5.27;99.00
10460;BME280;54412;51.206;6.888;2023-12-07T05:58:32;101293.06;;;5.63;98.42
10460;BME280;54412;51.206;6.888;2023-12-07T06:01:00;101300.28;;;5.50;98.96
10460;BME280;54412;51.206;6.888;2023-12-07T06:03:25;101299.31;;;5.56;98.35
10460;BME280;54412;51.206;6.888;2023-12-07T06:05:52;101292.69;;;5.37;98.14
10460;BME280;54412;51.206;6.888;2023-12-07T06:08:17;101293.13;;;5.58;97.20
10460;BME280;54412;51.206;6.888;2023-12-07T06:10:43;101290.53;;;5.58;96.21
10460;BME280;54412;51.206;6.888;2023-12-07T06:13:09;101287.16;;;5.52;96.29
10460;BME280;54412;51.206;6.888;2023-12-07T06:15:36;101285.25;;;5.60;96.17
10460;BME280;54412;51.206;6.888;2023-12-07T06:18:01;101291.84;;;5.34;96.48
10460;BME280;54412;51.206;6.888;2023-12-07T06:20:27;101292.16;;;5.16;97.28
10460;BME280;54412;51.206;6.888;2023-12-07T06:22:53;101283.13;;;5.36;95.88
10460;BME280;54412;51.206;6.888;2023-12-07T06:25:18;101277.44;;;5.12;96.61
10460;BME280;54412;51.206;6.888;2023-12-07T06:27:44;101278.28;;;5.14;96.65
10460;BME280;54412;51.206;6.888;2023-12-07T06:30:10;101275.28;;;4.85;98.36
10460;BME280;54412;51.206;6.888;2023-12-07T06:32:36;101279.56;;;4.89;98.49
10460;BME280;54412;51.206;6.888;2023-12-07T06:35:02;101266.19;;;5.06;97.16
10460;BME280;54412;51.206;6.888;2023-12-07T06:37:30;101277.81;;;4.90;97.23
10460;BME280;54412;51.206;6.888;2023-12-07T06:39:56;101272.41;;;5.00;96.79
10460;BME280;54412;51.206;6.888;2023-12-07T06:42:21;101275.91;;;4.99;97.26
10460;BME280;54412;51.206;6.888;2023-12-07T06:44:48;101277.88;;;4.87;97.84
10460;BME280;54412;51.206;6.888;2023-12-07T06:47:16;101274.47;;;4.82;97.96
10460;BME280;54412;51.206;6.888;2023-12-07T06:49:44;101272.25;;;5.09;96.85
10460;BME280;54412;51.206;6.888;2023-12-07T06:52:11;101265.53;;;4.96;97.10
10460;BME280;54412;51.206;6.888;2023-12-07T06:54:38;101281.34;;;4.87;97.37
10460;BME280;54412;51.206;6.888;2023-12-07T06:57:06;101284.28;;;4.66;98.73
10460;BME280;54412;51.206;6.888;2023-12-07T06:59:33;101283.97;;;4.87;97.99
10460;BME280;54412;51.206;6.888;2023-12-07T07:01:59;101278.00;;;4.79;97.54
10460;BME280;54412;51.206;6.888;2023-12-07T07:04:24;101280.47;;;4.88;96.98
10460;BME280;54412;51.206;6.888;2023-12-07T07:06:50;101275.34;;;4.81;97.71
10460;BME280;54412;51.206;6.888;2023-12-07T07:09:17;101272.63;;;4.88;96.40
10460;BME280;54412;51.206;6.888;2023-12-07T07:11:50;101276.13;;;4.86;96.43
10460;BME280;54412;51.206;6.888;2023-12-07T07:14:16;101266.06;;;4.63;96.76
10460;BME280;54412;51.206;6.888;2023-12-07T07:16:42;101264.34;;;4.61;97.54
10460;BME280;54412;51.206;6.888;2023-12-07T07:19:08;101278.09;;;4.72;96.62
10460;BME280;54412;51.206;6.888;2023-12-07T07:21:34;101281.41;;;4.83;95.34
10460;BME280;54412;51.206;6.888;2023-12-07T07:24:00;101279.72;;;4.79;95.32
10460;BME280;54412;51.206;6.888;2023-12-07T07:26:25;101275.84;;;4.51;96.89
10460;BME280;54412;51.206;6.888;2023-12-07T07:28:52;101280.09;;;4.58;95.58
10460;BME280;54412;51.206;6.888;2023-12-07T07:31:18;101269.78;;;4.47;96.85
10460;BME280;54412;51.206;6.888;2023-12-07T07:33:45;101263.69;;;4.50;97.41
10460;BME280;54412;51.206;6.888;2023-12-07T07:36:13;101272.19;;;4.61;96.15
10460;BME280;54412;51.206;6.888;2023-12-07T07:38:41;101277.28;;;4.71;95.23
10460;BME280;54412;51.206;6.888;2023-12-07T07:41:07;101284.91;;;4.83;93.68
10460;BME280;54412;51.206;6.888;2023-12-07T07:43:32;101283.47;;;4.63;94.56
10460;BME280;54412;51.206;6.888;2023-12-07T07:46:00;101294.88;;;4.57;94.99
10460;BME280;54412;51.206;6.888;2023-12-07T07:48:26;101287.16;;;4.51;95.05
10460;BME280;54412;51.206;6.888;2023-12-07T07:50:52;101287.16;;;4.51;94.69
10460;BME280;54412;51.206;6.888;2023-12-07T07:53:18;101282.78;;;4.52;94.52
10460;BME280;54412;51.206;6.888;2023-12-07T07:55:43;101269.78;;;4.49;94.57
10460;BME280;54412;51.206;6.888;2023-12-07T07:58:09;101269.84;;;4.43;95.10
10460;BME280;54412;51.206;6.888;2023-12-07T08:00:35;101284.28;;;4.66;94.36
10460;BME280;54412;51.206;6.888;2023-12-07T08:03:00;101280.16;;;4.52;94.00
10460;BME280;54412;51.206;6.888;2023-12-07T08:05:26;101280.03;;;4.61;94.05
10460;BME280;54412;51.206;6.888;2023-12-07T08:07:52;101283.91;;;4.34;94.30
10460;BME280;54412;51.206;6.888;2023-12-07T08:10:18;101282.13;;;4.38;93.91
10460;BME280;54412;51.206;6.888;2023-12-07T08:12:43;101292.81;;;4.22;94.73
10460;BME280;54412;51.206;6.888;2023-12-07T08:15:10;101297.03;;;4.31;94.14
10460;BME280;54412;51.206;6.888;2023-12-07T08:17:39;101299.50;;;4.40;94.01
10460;BME280;54412;51.206;6.888;2023-12-07T08:20:10;101299.59;;;4.33;94.40
10460;BME280;54412;51.206;6.888;2023-12-07T08:22:39;101296.13;;;4.32;94.15
10460;BME280;54412;51.206;6.888;2023-12-07T08:25:07;101303.16;;;4.27;92.94
10460;BME280;54412;51.206;6.888;2023-12-07T08:27:34;101296.75;;;4.49;92.69
10460;BME280;54412;51.206;6.888;2023-12-07T08:30:00;101304.56;;;4.51;92.45
10460;BME280;54412;51.206;6.888;2023-12-07T08:32:26;101301.88;;;4.57;92.27
10460;BME280;54412;51.206;6.888;2023-12-07T08:34:53;101300.00;;;4.65;91.07
10460;BME280;54412;51.206;6.888;2023-12-07T08:37:18;101297.34;;;4.66;91.99
10460;BME280;54412;51.206;6.888;2023-12-07T08:39:44;101299.66;;;4.87;91.33
10460;BME280;54412;51.206;6.888;2023-12-07T08:42:10;101295.38;;;4.80;91.06
10460;BME280;54412;51.206;6.888;2023-12-07T08:44:36;101306.66;;;4.85;90.57
10460;BME280;54412;51.206;6.888;2023-12-07T08:47:02;101305.44;;;5.04;89.82
10460;BME280;54412;51.206;6.888;2023-12-07T08:49:29;101314.03;;;5.11;89.58
10460;BME280;54412;51.206;6.888;2023-12-07T08:51:55;101322.72;;;5.14;89.53
10460;BME280;54412;51.206;6.888;2023-12-07T08:54:21;101318.66;;;4.97;89.80
10460;BME280;54412;51.206;6.888;2023-12-07T08:56:47;101312.66;;;4.90;90.52
10460;BME280;54412;51.206;6.888;2023-12-07T08:59:13;101313.78;;;5.26;89.72
10460;BME280;54412;51.206;6.888;2023-12-07T09:01:39;101316.16;;;5.41;88.66
10460;BME280;54412;51.206;6.888;2023-12-07T09:04:05;101313.91;;;5.18;87.60
10460;BME280;54412;51.206;6.888;2023-12-07T09:06:31;101315.94;;;5.03;88.01
10460;BME280;54412;51.206;6.888;2023-12-07T09:08:57;101309.16;;;5.43;87.86
10460;BME280;54412;51.206;6.888;2023-12-07T09:11:23;101312.91;;;5.73;86.21
10460;BME280;54412;51.206;6.888;2023-12-07T09:13:48;101310.97;;;5.85;85.34
10460;BME280;54412;51.206;6.888;2023-12-07T09:16:14;101318.69;;;5.91;83.94
10460;BME280;54412;51.206;6.888;2023-12-07T09:18:42;101312.44;;;5.98;84.87
10460;BME280;54412;51.206;6.888;2023-12-07T09:21:08;101312.56;;;5.92;83.54
10460;BME280;54412;51.206;6.888;2023-12-07T09:23:34;101308.75;;;6.07;83.50
10460;BME280;54412;51.206;6.888;2023-12-07T09:26:00;101307.56;;;6.21;82.52
10460;BME280;54412;51.206;6.888;2023-12-07T09:28:26;101309.28;;;5.80;83.86
10460;BME280;54412;51.206;6.888;2023-12-07T09:30:52;101307.75;;;5.70;83.80
10460;BME280;54412;51.206;6.888;2023-12-07T09:33:17;101295.13;;;5.91;83.74
10460;BME280;54412;51.206;6.888;2023-12-07T09:35:43;101291.09;;;5.72;84.33
10460;BME280;54412;51.206;6.888;2023-12-07T09:38:09;101309.53;;;5.68;83.09
10460;BME280;54412;51.206;6.888;2023-12-07T09:40:35;101307.47;;;5.86;83.57
10460;BME280;54412;51.206;6.888;2023-12-07T09:43:01;101299.69;;;6.23;81.97
10460;BME280;54412;51.206;6.888;2023-12-07T09:45:27;101297.19;;;6.18;81.35
10460;BME280;54412;51.206;6.888;2023-12-07T09:47:54;101302.41;;;6.18;81.49
10460;BME280;54412;51.206;6.888;2023-12-07T09:50:23;101306.13;;;5.64;81.46
10460;BME280;54412;51.206;6.888;2023-12-07T09:52:54;101303.13;;;5.82;81.83
10460;BME280;54412;51.206;6.888;2023-12-07T09:55:22;101296.63;;;6.04;80.44
10460;BME280;54412;51.206;6.888;2023-12-07T09:57:49;101282.22;;;6.62;83.51
10460;BME280;54412;51.206;6.888;2023-12-07T10:00:16;101302.16;;;6.30;78.35
10460;BME280;54412;51.206;6.888;2023-12-07T10:02:45;101275.03;;;6.70;78.66
10460;BME280;54412;51.206;6.888;2023-12-07T10:05:14;101283.31;;;6.52;77.13
10460;BME280;54412;51.206;6.888;2023-12-07T10:07:43;101267.41;;;6.21;78.75
10460;BME280;54412;51.206;6.888;2023-12-07T10:10:10;101271.78;;;6.59;77.50
10460;BME280;54412;51.206;6.888;2023-12-07T10:12:54;101284.13;;;6.54;76.97
10460;BME280;54412;51.206;6.888;2023-12-07T10:15:22;101291.56;;;6.72;76.06
10460;BME280;54412;51.206;6.888;2023-12-07T10:17:57;101275.56;;;6.47;78.03
10460;BME280;54412;51.206;6.888;2023-12-07T10:20:26;101274.78;;;6.44;77.50
10460;BME280;54412;51.206;6.888;2023-12-07T10:23:09;101270.47;;;6.78;78.61
10460;BME280;54412;51.206;6.888;2023-12-07T10:25:41;101262.59;;;6.78;76.56
10460;BME280;54412;51.206;6.888;2023-12-07T10:28:08;101274.47;;;6.17;77.82
10460;BME280;54412;51.206;6.888;2023-12-07T10:30:39;101269.53;;;6.05;78.28
10460;BME280;54412;51.206;6.888;2023-12-07T10:33:06;101262.56;;;6.04;78.81
10460;BME280;54412;51.206;6.888;2023-12-07T10:35:33;101272.38;;;5.49;80.36
10460;BME280;54412;51.206;6.888;2023-12-07T10:37:59;101261.59;;;5.66;80.25
10460;BME280;54412;51.206;6.888;2023-12-07T10:40:25;101258.22;;;5.61;80.09
10460;BME280;54412;51.206;6.888;2023-12-07T10:42:57;101263.25;;;5.24;80.40
10460;BME280;54412;51.206;6.888;2023-12-07T10:45:26;101251.34;;;5.08;82.59
10460;BME280;54412;51.206;6.888;2023-12-07T10:48:03;101231.00;;;5.23;82.02
10460;BME280;54412;51.206;6.888;2023-12-07T10:50:46;101221.09;;;4.95;82.66
10460;BME280;54412;51.206;6.888;2023-12-07T10:53:21;101224.78;;;5.32;81.88
10460;BME280;54412;51.206;6.888;2023-12-07T10:55:56;101214.13;;;5.41;81.73
10460;BME280;54412;51.206;6.888;2023-12-07T10:58:23;101216.31;;;5.16;81.69
10460;BME280;54412;51.206;6.888;2023-12-07T11:00:52;101208.75;;;5.49;81.03
10460;BME280;54412;51.206;6.888;2023-12-07T11:03:18;101202.22;;;5.68;80.49
10460;BME280;54412;51.206;6.888;2023-12-07T11:05:48;101192.31;;;5.82;80.47
10460;BME280;54412;51.206;6.888;2023-12-07T11:08:28;101187.16;;;5.79;80.72
10460;BME280;54412;51.206;6.888;2023-12-07T11:11:12;101181.53;;;5.98;79.11
10460;BME280;54412;51.206;6.888;2023-12-07T11:14:07;101168.13;;;6.10;77.60
10460;BME280;54412;51.206;6.888;2023-12-07T11:16:36;101162.38;;;5.96;78.37
10460;BME280;54412;51.206;6.888;2023-12-07T11:21:59;101163.31;;;6.64;76.92
10460;BME280;54412;51.206;6.888;2023-12-07T11:24:25;101154.88;;;6.87;75.98
10460;BME280;54412;51.206;6.888;2023-12-07T11:26:58;101153.94;;;7.51;74.30
10460;BME280;54412;51.206;6.888;2023-12-07T11:29:31;101148.34;;;7.63;74.33
10460;BME280;54412;51.206;6.888;2023-12-07T11:32:02;101150.22;;;6.98;74.57
10460;BME280;54412;51.206;6.888;2023-12-07T11:34:40;101140.47;;;6.35;75.82
10460;BME280;54412;51.206;6.888;2023-12-07T11:37:08;101142.69;;;6.15;75.87
10460;BME280;54412;51.206;6.888;2023-12-07T11:39:39;101137.84;;;6.00;77.01
10460;BME280;54412;51.206;6.888;2023-12-07T11:42:14;101126.66;;;5.92;76.96
10460;BME280;54412;51.206;6.888;2023-12-07T11:44:42;101134.63;;;6.24;76.69
10460;BME280;54412;51.206;6.888;2023-12-07T11:47:10;101127.00;;;6.83;74.99
10460;BME280;54412;51.206;6.888;2023-12-07T11:49:43;101132.81;;;6.94;73.99
10460;BME280;54412;51.206;6.888;2023-12-07T11:52:26;101113.19;;;7.08;72.46
10460;BME280;54412;51.206;6.888;2023-12-07T11:54:53;101126.38;;;7.93;71.91
10460;BME280;54412;51.206;6.888;2023-12-07T11:57:18;101118.66;;;7.59;71.64
10460;BME280;54412;51.206;6.888;2023-12-07T11:59:45;101111.69;;;7.87;71.03
10460;BME280;54412;51.206;6.888;2023-12-07T12:02:13;101100.44;;;8.37;72.24
10460;BME280;54412;51.206;6.888;2023-12-07T12:04:40;101098.44;;;8.18;69.83
10460;BME280;54412;51.206;6.888;2023-12-07T12:07:06;101097.50;;;7.65;71.03
10460;BME280;54412;51.206;6.888;2023-12-07T12:09:32;101102.00;;;7.89;71.36
10460;BME280;54412;51.206;6.888;2023-12-07T12:12:00;101101.13;;;8.15;69.30
10460;BME280;54412;51.206;6.888;2023-12-07T12:14:27;101110.75;;;7.88;69.79
10460;BME280;54412;51.206;6.888;2023-12-07T12:16:53;101096.53;;;7.68;71.22
10460;BME280;54412;51.206;6.888;2023-12-07T12:19:20;101100.00;;;7.68;70.27
10460;BME280;54412;51.206;6.888;2023-12-07T12:21:45;101094.75;;;7.68;69.26
10460;BME280;54412;51.206;6.888;2023-12-07T12:24:12;101099.16;;;7.68;70.45
10460;BME280;54412;51.206;6.888;2023-12-07T12:26:41;101094.19;;;7.86;69.50
10460;BME280;54412;51.206;6.888;2023-12-07T12:29:08;101093.06;;;7.67;68.85
10460;BME280;54412;51.206;6.888;2023-12-07T12:31:35;101085.22;;;7.66;69.84
10460;BME280;54412;51.206;6.888;2023-12-07T12:34:01;101083.97;;;7.77;69.38
10460;BME280;54412;51.206;6.888;2023-12-07T12:36:27;101078.88;;;8.00;69.27
10460;BME280;54412;51.206;6.888;2023-12-07T12:38:54;101074.00;;;7.88;69.02
10460;BME280;54412;51.206;6.888;2023-12-07T12:41:22;101072.28;;;8.13;68.75
10460;BME280;54412;51.206;6.888;2023-12-07T12:43:49;101070.38;;;8.18;68.36
10460;BME280;54412;51.206;6.888;2023-12-07T12:46:16;101052.56;;;8.28;68.34
10460;BME280;54412;51.206;6.888;2023-12-07T12:48:59;101042.63;;;8.85;67.40
10460;BME280;54412;51.206;6.888;2023-12-07T12:51:29;101039.78;;;9.14;65.19
10460;BME280;54412;51.206;6.888;2023-12-07T12:53:59;101041.19;;;9.46;64.97
10460;BME280;54412;51.206;6.888;2023-12-07T12:56:27;101034.63;;;9.34;64.18
10460;BME280;54412;51.206;6.888;2023-12-07T12:58:54;101023.66;;;9.23;62.76
10460;BME280;54412;51.206;6.888;2023-12-07T13:01:23;101026.25;;;9.46;61.57
10460;BME280;54412;51.206;6.888;2023-12-07T13:03:49;101032.59;;;9.64;61.51